sensor_id;sensor_type;location;lat;lon;timestamp;pressure;altitude;pressure_sealevel;temperature;humidity
5755;BME280;2902;42.130;24.732;2024-01-15T00:01:45;99113.41;;;-0.14;84.84
5755;BME280;2902;42.130;24.732;2024-01-15T00:04:12;99106.41;;;-0.14;84.59
5755;BME280;2902;42.130;24.732;2024-01-15T00:06:40;99101.72;;;-0.29;84.63
5755;BME280;2902;42.130;24.732;2024-01-15T00:09:07;99095.97;;;-0.42;85.48
5755;BME280;2902;42.130;24.732;2024-01-15T00:11:33;99103.34;;;-0.66;85.62
5755;BME280;2902;42.130;24.732;2024-01-15T00:14:00;99087.72;;;-0.66;86.33
5755;BME280;2902;42.130;24.732;2024-01-15T00:16:28;99098.97;;;-0.66;87.38
5755;BME280;2902;42.130;24.732;2024-01-15T00:18:55;99100.59;;;-0.74;86.39
5755;BME280;2902;42.130;24.732;2024-01-15T00:21:21;99091.13;;;-0.75;86.66
5755;BME280;2902;42.130;24.732;2024-01-15T00:23:50;99089.91;;;-0.71;86.82
5755;BME280;2902;42.130;24.732;2024-01-15T00:26:16;99097.34;;;-0.67;86.77
5755;BME280;2902;42.130;24.732;2024-01-15T00:28:43;99097.56;;;-0.79;86.84
5755;BME280;2902;42.130;24.732;2024-01-15T00:31:10;99098.22;;;-0.96;86.60
5755;BME280;2902;42.130;24.732;2024-01-15T00:33:36;99096.59;;;-0.97;87.46
5755;BME280;2902;42.130;24.732;2024-01-15T00:36:03;99083.00;;;-0.91;88.34
5755;BME280;2902;42.130;24.732;2024-01-15T00:38:30;99080.69;;;-0.85;87.85
5755;BME280;2902;42.130;24.732;2024-01-15T00:40:58;99081.94;;;-0.79;87.72
5755;BME280;2902;42.130;24.732;2024-01-15T00:43:25;99082.50;;;-0.76;87.13
5755;BME280;2902;42.130;24.732;2024-01-15T00:45:52;99085.53;;;-0.71;86.81
5755;BME280;2902;42.130;24.732;2024-01-15T00:48:18;99085.53;;;-0.71;86.61
5755;BME280;2902;42.130;24.732;2024-01-15T00:50:45;99082.22;;;-0.73;86.47
5755;BME280;2902;42.130;24.732;2024-01-15T00:53:12;99080.84;;;-0.67;87.05
5755;BME280;2902;42.130;24.732;2024-01-15T00:55:38;99078.09;;;-0.75;86.93
5755;BME280;2902;42.130;24.732;2024-01-15T00:58:06;99075.09;;;-0.80;86.57
5755;BME280;2902;42.130;24.732;2024-01-15T01:00:33;99075.34;;;-0.83;87.15
5755;BME280;2902;42.130;24.732;2024-01-15T01:03:00;99076.72;;;-0.79;86.23
5755;BME280;2902;42.130;24.732;2024-01-15T01:05:26;99076.19;;;-0.73;85.90
5755;BME280;2902;42.130;24.732;2024-01-15T01:07:53;99071.78;;;-0.73;85.44
5755;BME280;2902;42.130;24.732;2024-01-15T01:10:20;99073.47;;;-0.72;85.71
5755;BME280;2902;42.130;24.732;2024-01-15T01:12:46;99066.31;;;-0.70;85.88
5755;BME280;2902;42.130;24.732;2024-01-15T01:15:14;99064.66;;;-0.71;85.51
5755;BME280;2902;42.130;24.732;2024-01-15T01:17:41;99065.22;;;-0.86;85.52
5755;BME280;2902;42.130;24.732;2024-01-15T01:20:08;99064.66;;;-0.80;86.29
5755;BME280;2902;42.130;24.732;2024-01-15T01:22:35;99064.53;;;-0.79;86.99
5755;BME280;2902;42.130;24.732;2024-01-15T01:25:02;99061.63;;;-0.85;86.39
5755;BME280;2902;42.130;24.732;2024-01-15T01:27:29;99065.56;;;-1.00;86.38
5755;BME280;2902;42.130;24.732;2024-01-15T01:29:56;99057.63;;;-0.99;86.77
5755;BME280;2902;42.130;24.732;2024-01-15T01:32:24;99058.72;;;-1.01;86.70
5755;BME280;2902;42.130;24.732;2024-01-15T01:34:51;99056.94;;;-1.10;86.40
5755;BME280;2902;42.130;24.732;2024-01-15T01:37:18;99055.09;;;-1.19;86.32
5755;BME280;2902;42.130;24.732;2024-01-15T01:39:45;99060.00;;;-1.35;85.88
5755;BME280;2902;42.130;24.732;2024-01-15T01:42:11;99053.59;;;-1.31;87.05
5755;BME280;2902;42.130;24.732;2024-01-15T01:44:38;99058.00;;;-1.22;87.09
5755;BME280;2902;42.130;24.732;2024-01-15T01:47:05;99058.25;;;-1.25;86.95
5755;BME280;2902;42.130;24.732;2024-01-15T01:49:34;99056.06;;;-1.20;87.40
5755;BME280;2902;42.130;24.732;2024-01-15T01:52:02;99045.78;;;-1.12;88.07
5755;BME280;2902;42.130;24.732;2024-01-15T01:54:32;99047.31;;;-1.10;87.56
5755;BME280;2902;42.130;24.732;2024-01-15T01:56:59;99043.34;;;-1.04;87.26
5755;BME280;2902;42.130;24.732;2024-01-15T01:59:27;99045.00;;;-1.03;87.49
5755;BME280;2902;42.130;24.732;2024-01-15T02:01:55;99040.19;;;-1.08;87.49
5755;BME280;2902;42.130;24.732;2024-01-15T02:04:24;99038.28;;;-0.96;87.44
5755;BME280;2902;42.130;24.732;2024-01-15T02:06:52;99052.44;;;-0.89;86.88
5755;BME280;2902;42.130;24.732;2024-01-15T02:09:19;99042.28;;;-0.92;86.45
5755;BME280;2902;42.130;24.732;2024-01-15T02:11:46;99048.19;;;-0.90;86.34
5755;BME280;2902;42.130;24.732;2024-01-15T02:14:13;99055.03;;;-0.89;86.54
5755;BME280;2902;42.130;24.732;2024-01-15T02:16:40;99051.47;;;-0.88;86.38
5755;BME280;2902;42.130;24.732;2024-01-15T02:19:07;99053.41;;;-0.90;86.20
5755;BME280;2902;42.130;24.732;2024-01-15T02:21:34;99049.13;;;-0.91;86.26
5755;BME280;2902;42.130;24.732;2024-01-15T02:24:02;99047.06;;;-0.97;87.04
5755;BME280;2902;42.130;24.732;2024-01-15T02:26:29;99043.25;;;-0.93;86.71
5755;BME280;2902;42.130;24.732;2024-01-15T02:28:55;99030.59;;;-0.98;86.86
5755;BME280;2902;42.130;24.732;2024-01-15T02:31:22;99033.19;;;-1.07;86.42
5755;BME280;2902;42.130;24.732;2024-01-15T02:33:49;99035.22;;;-1.20;87.30
5755;BME280;2902;42.130;24.732;2024-01-15T02:36:16;99046.19;;;-1.26;88.23
5755;BME280;2902;42.130;24.732;2024-01-15T02:38:42;99042.88;;;-1.28;88.08
5755;BME280;2902;42.130;24.732;2024-01-15T02:41:10;99043.75;;;-1.48;87.92
5755;BME280;2902;42.130;24.732;2024-01-15T02:43:39;99039.09;;;-1.54;88.45
5755;BME280;2902;42.130;24.732;2024-01-15T02:46:06;99040.53;;;-1.71;88.15
5755;BME280;2902;42.130;24.732;2024-01-15T02:48:33;99048.31;;;-1.80;88.84
5755;BME280;2902;42.130;24.732;2024-01-15T02:51:00;99047.84;;;-1.85;89.12
5755;BME280;2902;42.130;24.732;2024-01-15T02:53:27;99037.19;;;-1.82;90.49
5755;BME280;2902;42.130;24.732;2024-01-15T02:55:53;99036.22;;;-1.81;89.92
5755;BME280;2902;42.130;24.732;2024-01-15T02:58:21;99035.81;;;-1.86;89.34
5755;BME280;2902;42.130;24.732;2024-01-15T03:00:48;99026.44;;;-1.98;89.01
5755;BME280;2902;42.130;24.732;2024-01-15T03:03:15;99026.00;;;-2.03;89.81
5755;BME280;2902;42.130;24.732;2024-01-15T03:05:42;99027.19;;;-2.07;90.14
5755;BME280;2902;42.130;24.732;2024-01-15T03:08:08;99023.41;;;-2.03;90.37
5755;BME280;2902;42.130;24.732;2024-01-15T03:10:35;99026.13;;;-2.05;89.82
5755;BME280;2902;42.130;24.732;2024-01-15T03:13:02;99027.44;;;-2.10;89.57
5755;BME280;2902;42.130;24.732;2024-01-15T03:15:30;99029.50;;;-2.14;89.43
5755;BME280;2902;42.130;24.732;2024-01-15T03:17:57;99022.50;;;-2.13;90.33
5755;BME280;2902;42.130;24.732;2024-01-15T03:20:24;99030.94;;;-2.21;89.98
5755;BME280;2902;42.130;24.732;2024-01-15T03:22:50;99040.09;;;-2.26;89.82
5755;BME280;2902;42.130;24.732;2024-01-15T03:25:17;99027.03;;;-2.36;90.14
5755;BME280;2902;42.130;24.732;2024-01-15T03:27:44;99026.31;;;-2.38;90.74
5755;BME280;2902;42.130;24.732;2024-01-15T03:30:11;99016.28;;;-2.42;91.61
5755;BME280;2902;42.130;24.732;2024-01-15T03:32:40;99020.16;;;-2.37;92.32
5755;BME280;2902;42.130;24.732;2024-01-15T03:35:07;99012.25;;;-2.35;91.79
5755;BME280;2902;42.130;24.732;2024-01-15T03:37:34;99000.16;;;-2.25;92.10
5755;BME280;2902;42.130;24.732;2024-01-15T03:40:01;98999.75;;;-2.21;91.83
5755;BME280;2902;42.130;24.732;2024-01-15T03:42:28;99013.41;;;-2.28;90.82
5755;BME280;2902;42.130;24.732;2024-01-15T03:44:54;99026.66;;;-2.31;91.25
5755;BME280;2902;42.130;24.732;2024-01-15T03:47:21;99019.47;;;-2.18;92.16
5755;BME280;2902;42.130;24.732;2024-01-15T03:49:49;99034.28;;;-2.09;91.95
5755;BME280;2902;42.130;24.732;2024-01-15T03:52:16;99038.28;;;-2.05;91.44
5755;BME280;2902;42.130;24.732;2024-01-15T03:54:42;99031.63;;;-1.98;90.85
5755;BME280;2902;42.130;24.732;2024-01-15T03:57:09;99028.25;;;-1.89;90.87
5755;BME280;2902;42.130;24.732;2024-01-15T03:59:36;99023.75;;;-1.87;90.57
5755;BME280;2902;42.130;24.732;2024-01-15T04:02:04;99025.94;;;-1.83;90.40
5755;BME280;2902;42.130;24.732;2024-01-15T04:04:30;99020.50;;;-1.80;90.64
5755;BME280;2902;42.130;24.732;2024-01-15T04:06:58;99019.84;;;-1.72;90.39
5755;BME280;2902;42.130;24.732;2024-01-15T04:09:25;99019.31;;;-1.66;90.19
5755;BME280;2902;42.130;24.732;2024-01-15T04:11:52;99019.22;;;-1.55;89.69
5755;BME280;2902;42.130;24.732;2024-01-15T04:14:18;99012.09;;;-1.53;89.33
5755;BME280;2902;42.130;24.732;2024-01-15T04:16:45;99016.09;;;-1.49;89.11
5755;BME280;2902;42.130;24.732;2024-01-15T04:19:12;99016.34;;;-1.52;88.14
5755;BME280;2902;42.130;24.732;2024-01-15T04:21:38;99027.97;;;-1.56;87.48
5755;BME280;2902;42.130;24.732;2024-01-15T04:24:07;99020.88;;;-1.54;87.63
5755;BME280;2902;42.130;24.732;2024-01-15T04:26:33;99012.53;;;-1.48;87.62
5755;BME280;2902;42.130;24.732;2024-01-15T04:29:00;99005.28;;;-1.45;87.70
5755;BME280;2902;42.130;24.732;2024-01-15T04:31:27;98998.72;;;-1.39;87.89
5755;BME280;2902;42.130;24.732;2024-01-15T04:33:53;98997.75;;;-1.38;86.92
5755;BME280;2902;42.130;24.732;2024-01-15T04:36:20;99001.75;;;-1.34;87.28
5755;BME280;2902;42.130;24.732;2024-01-15T04:38:47;98986.53;;;-1.29;87.31
5755;BME280;2902;42.130;24.732;2024-01-15T04:41:16;98992.13;;;-1.34;87.03
5755;BME280;2902;42.130;24.732;2024-01-15T04:43:43;98991.00;;;-1.50;86.76
5755;BME280;2902;42.130;24.732;2024-01-15T04:46:09;98995.81;;;-1.55;87.89
5755;BME280;2902;42.130;24.732;2024-01-15T04:48:36;99001.00;;;-1.55;87.82
5755;BME280;2902;42.130;24.732;2024-01-15T04:51:04;98974.09;;;-1.65;87.77
5755;BME280;2902;42.130;24.732;2024-01-15T04:53:32;98977.88;;;-1.49;88.52
5755;BME280;2902;42.130;24.732;2024-01-15T04:55:59;98990.06;;;-1.49;88.99
5755;BME280;2902;42.130;24.732;2024-01-15T04:58:27;98991.28;;;-1.53;87.82
5755;BME280;2902;42.130;24.732;2024-01-15T05:00:54;98984.69;;;-1.57;87.76
5755;BME280;2902;42.130;24.732;2024-01-15T05:03:21;98987.13;;;-1.65;87.53
5755;BME280;2902;42.130;24.732;2024-01-15T05:05:48;98991.09;;;-1.61;87.86
5755;BME280;2902;42.130;24.732;2024-01-15T05:08:14;98981.94;;;-1.56;87.90
5755;BME280;2902;42.130;24.732;2024-01-15T05:10:41;98972.91;;;-1.52;87.45
5755;BME280;2902;42.130;24.732;2024-01-15T05:13:08;98964.72;;;-1.47;87.09
5755;BME280;2902;42.130;24.732;2024-01-15T05:15:36;98961.00;;;-1.54;86.76
5755;BME280;2902;42.130;24.732;2024-01-15T05:18:02;98956.75;;;-1.55;87.63
5755;BME280;2902;42.130;24.732;2024-01-15T05:20:29;98955.41;;;-1.50;88.09
5755;BME280;2902;42.130;24.732;2024-01-15T05:22:56;98957.84;;;-1.48;88.08
5755;BME280;2902;42.130;24.732;2024-01-15T05:25:23;98953.34;;;-1.46;87.47
5755;BME280;2902;42.130;24.732;2024-01-15T05:27:49;98949.19;;;-1.58;87.07
5755;BME280;2902;42.130;24.732;2024-01-15T05:30:16;98951.72;;;-1.77;86.89
5755;BME280;2902;42.130;24.732;2024-01-15T05:32:44;98947.16;;;-1.94;87.05
5755;BME280;2902;42.130;24.732;2024-01-15T05:35:11;98942.88;;;-2.05;87.54
5755;BME280;2902;42.130;24.732;2024-01-15T05:37:39;98946.13;;;-2.12;88.72
5755;BME280;2902;42.130;24.732;2024-01-15T05:40:06;98941.88;;;-2.13;89.50
5755;BME280;2902;42.130;24.732;2024-01-15T05:42:34;98940.41;;;-2.06;89.82
5755;BME280;2902;42.130;24.732;2024-01-15T05:45:01;98951.06;;;-2.09;89.20
5755;BME280;2902;42.130;24.732;2024-01-15T05:47:30;98957.75;;;-2.16;90.07
5755;BME280;2902;42.130;24.732;2024-01-15T05:49:58;98956.53;;;-2.12;90.60
5755;BME280;2902;42.130;24.732;2024-01-15T05:52:25;98972.94;;;-2.12;90.09
5755;BME280;2902;42.130;24.732;2024-01-15T05:54:51;98981.66;;;-2.22;89.66
5755;BME280;2902;42.130;24.732;2024-01-15T05:57:18;98977.56;;;-2.45;89.79
5755;BME280;2902;42.130;24.732;2024-01-15T05:59:45;98972.81;;;-2.40;90.87
5755;BME280;2902;42.130;24.732;2024-01-15T06:02:12;98965.69;;;-2.38;90.84
5755;BME280;2902;42.130;24.732;2024-01-15T06:04:38;98967.97;;;-2.24;90.58
5755;BME280;2902;42.130;24.732;2024-01-15T06:07:06;98960.84;;;-2.22;90.04
5755;BME280;2902;42.130;24.732;2024-01-15T06:09:33;98962.00;;;-2.15;89.82
5755;BME280;2902;42.130;24.732;2024-01-15T06:12:00;98948.91;;;-2.04;89.94
5755;BME280;2902;42.130;24.732;2024-01-15T06:14:26;98945.53;;;-1.95;89.71
5755;BME280;2902;42.130;24.732;2024-01-15T06:16:53;98947.19;;;-1.85;89.07
5755;BME280;2902;42.130;24.732;2024-01-15T06:19:20;98960.50;;;-1.78;88.88
5755;BME280;2902;42.130;24.732;2024-01-15T06:21:46;98975.28;;;-1.88;88.09
5755;BME280;2902;42.130;24.732;2024-01-15T06:24:15;98975.34;;;-1.99;88.18
5755;BME280;2902;42.130;24.732;2024-01-15T06:26:43;98986.09;;;-2.13;88.26
5755;BME280;2902;42.130;24.732;2024-01-15T06:29:10;98991.56;;;-2.16;88.17
5755;BME280;2902;42.130;24.732;2024-01-15T06:31:36;98990.84;;;-2.18;88.96
5755;BME280;2902;42.130;24.732;2024-01-15T06:34:03;98971.31;;;-2.13;89.45
5755;BME280;2902;42.130;24.732;2024-01-15T06:36:30;98987.28;;;-1.97;89.75
5755;BME280;2902;42.130;24.732;2024-01-15T06:38:56;98993.66;;;-1.80;89.82
5755;BME280;2902;42.130;24.732;2024-01-15T06:41:24;98983.84;;;-1.67;89.57
5755;BME280;2902;42.130;24.732;2024-01-15T06:43:51;98985.06;;;-1.71;87.81
5755;BME280;2902;42.130;24.732;2024-01-15T06:46:20;98971.00;;;-1.59;87.99
5755;BME280;2902;42.130;24.732;2024-01-15T06:48:46;98976.44;;;-1.62;87.55
5755;BME280;2902;42.130;24.732;2024-01-15T06:51:13;98974.09;;;-1.65;86.75
5755;BME280;2902;42.130;24.732;2024-01-15T06:53:40;98966.88;;;-1.52;87.38
5755;BME280;2902;42.130;24.732;2024-01-15T06:56:07;98976.81;;;-1.37;86.94
5755;BME280;2902;42.130;24.732;2024-01-15T06:58:35;98978.16;;;-1.42;86.31
5755;BME280;2902;42.130;24.732;2024-01-15T07:01:02;98974.25;;;-1.57;86.04
5755;BME280;2902;42.130;24.732;2024-01-15T07:03:30;98952.03;;;-1.71;86.20
5755;BME280;2902;42.130;24.732;2024-01-15T07:05:56;98969.91;;;-1.38;87.62
5755;BME280;2902;42.130;24.732;2024-01-15T07:08:23;98946.91;;;-1.23;88.09
5755;BME280;2902;42.130;24.732;2024-01-15T07:10:50;98974.38;;;-1.00;86.26
5755;BME280;2902;42.130;24.732;2024-01-15T07:13:16;98975.75;;;-0.96;85.80
5755;BME280;2902;42.130;24.732;2024-01-15T07:15:45;98973.00;;;-1.04;84.00
5755;BME280;2902;42.130;24.732;2024-01-15T07:18:11;98964.22;;;-1.22;83.90
5755;BME280;2902;42.130;24.732;2024-01-15T07:20:38;98967.19;;;-1.36;85.15
5755;BME280;2902;42.130;24.732;2024-01-15T07:23:05;98962.00;;;-1.27;85.86
5755;BME280;2902;42.130;24.732;2024-01-15T07:25:32;98966.28;;;-1.07;86.59
5755;BME280;2902;42.130;24.732;2024-01-15T07:27:59;98973.84;;;-0.94;86.34
5755;BME280;2902;42.130;24.732;2024-01-15T07:30:26;98979.31;;;-0.88;84.64
5755;BME280;2902;42.130;24.732;2024-01-15T07:32:54;98977.94;;;-1.01;84.39
5755;BME280;2902;42.130;24.732;2024-01-15T07:35:21;98951.88;;;-0.92;85.33
5755;BME280;2902;42.130;24.732;2024-01-15T07:37:47;98962.03;;;-0.60;85.84
5755;BME280;2902;42.130;24.732;2024-01-15T07:40:14;98980.53;;;-0.35;84.08
5755;BME280;2902;42.130;24.732;2024-01-15T07:42:41;98978.69;;;-0.15;83.69
5755;BME280;2902;42.130;24.732;2024-01-15T07:45:08;98986.84;;;0.09;82.75
5755;BME280;2902;42.130;24.732;2024-01-15T07:47:35;98995.84;;;0.24;81.49
5755;BME280;2902;42.130;24.732;2024-01-15T07:50:03;98994.31;;;0.31;81.49
5755;BME280;2902;42.130;24.732;2024-01-15T07:52:31;98991.44;;;0.34;81.29
5755;BME280;2902;42.130;24.732;2024-01-15T07:54:57;98983.97;;;0.39;81.54
5755;BME280;2902;42.130;24.732;2024-01-15T07:57:25;98987.75;;;0.54;81.83
5755;BME280;2902;42.130;24.732;2024-01-15T07:59:52;98996.44;;;0.72;80.32
5755;BME280;2902;42.130;24.732;2024-01-15T08:02:19;98997.34;;;0.63;80.27
5755;BME280;2902;42.130;24.732;2024-01-15T08:04:47;99001.75;;;0.53;80.82
5755;BME280;2902;42.130;24.732;2024-01-15T08:07:15;99007.81;;;0.54;81.61
5755;BME280;2902;42.130;24.732;2024-01-15T08:09:43;99009.09;;;0.94;82.03
5755;BME280;2902;42.130;24.732;2024-01-15T08:12:09;99014.38;;;1.47;81.32
5755;BME280;2902;42.130;24.732;2024-01-15T08:14:37;99033.00;;;2.12;78.44
5755;BME280;2902;42.130;24.732;2024-01-15T08:17:04;99031.38;;;2.78;76.09
5755;BME280;2902;42.130;24.732;2024-01-15T08:19:30;99037.88;;;3.08;75.24
5755;BME280;2902;42.130;24.732;2024-01-15T08:21:57;99035.19;;;3.41;74.87
5755;BME280;2902;42.130;24.732;2024-01-15T08:24:25;99045.53;;;3.75;71.28
5755;BME280;2902;42.130;24.732;2024-01-15T08:26:52;99044.38;;;4.01;69.48
5755;BME280;2902;42.130;24.732;2024-01-15T08:29:19;99058.47;;;4.16;69.21
5755;BME280;2902;42.130;24.732;2024-01-15T08:31:46;99053.06;;;4.26;69.53
5755;BME280;2902;42.130;24.732;2024-01-15T08:34:13;99056.31;;;4.36;68.81
5755;BME280;2902;42.130;24.732;2024-01-15T08:36:40;99050.53;;;4.56;67.83
5755;BME280;2902;42.130;24.732;2024-01-15T08:39:07;99047.63;;;4.35;68.00
5755;BME280;2902;42.130;24.732;2024-01-15T08:41:35;99039.09;;;4.09;69.23
5755;BME280;2902;42.130;24.732;2024-01-15T08:44:02;99026.34;;;3.90;69.91
5755;BME280;2902;42.130;24.732;2024-01-15T08:46:29;99009.75;;;3.66;70.68
5755;BME280;2902;42.130;24.732;2024-01-15T08:48:56;99006.63;;;3.46;71.67
5755;BME280;2902;42.130;24.732;2024-01-15T08:51:23;98981.84;;;3.41;72.46
5755;BME280;2902;42.130;24.732;2024-01-15T08:53:49;98984.31;;;3.42;73.81
5755;BME280;2902;42.130;24.732;2024-01-15T08:56:16;98979.06;;;3.42;72.18
5755;BME280;2902;42.130;24.732;2024-01-15T08:58:44;98964.94;;;3.43;73.15
5755;BME280;2902;42.130;24.732;2024-01-15T09:01:11;98966.56;;;3.60;72.82
5755;BME280;2902;42.130;24.732;2024-01-15T09:03:38;98972.81;;;3.83;70.91
5755;BME280;2902;42.130;24.732;2024-01-15T09:06:07;98974.41;;;4.00;69.05
5755;BME280;2902;42.130;24.732;2024-01-15T09:08:34;98969.13;;;4.16;69.49
5755;BME280;2902;42.130;24.732;2024-01-15T09:11:01;98976.66;;;4.27;69.19
5755;BME280;2902;42.130;24.732;2024-01-15T09:13:29;98973.66;;;4.38;68.43
5755;BME280;2902;42.130;24.732;2024-01-15T09:15:58;98972.53;;;4.41;67.94
5755;BME280;2902;42.130;24.732;2024-01-15T09:18:24;98958.72;;;4.39;68.90
5755;BME280;2902;42.130;24.732;2024-01-15T09:20:51;98969.41;;;4.29;69.00
5755;BME280;2902;42.130;24.732;2024-01-15T09:23:18;98975.66;;;4.28;70.41
5755;BME280;2902;42.130;24.732;2024-01-15T09:25:44;98977.13;;;4.31;69.32
5755;BME280;2902;42.130;24.732;2024-01-15T09:28:11;98948.13;;;4.08;70.50
5755;BME280;2902;42.130;24.732;2024-01-15T09:30:38;98952.25;;;4.03;71.32
5755;BME280;2902;42.130;24.732;2024-01-15T09:33:06;98936.66;;;3.93;71.30
5755;BME280;2902;42.130;24.732;2024-01-15T09:35:33;98930.63;;;3.85;72.39
5755;BME280;2902;42.130;24.732;2024-01-15T09:37:59;98938.19;;;3.80;73.13
5755;BME280;2902;42.130;24.732;2024-01-15T09:40:31;98938.66;;;3.83;72.15
5755;BME280;2902;42.130;24.732;2024-01-15T09:42:58;98930.78;;;3.75;72.56
5755;BME280;2902;42.130;24.732;2024-01-15T09:45:25;98913.09;;;3.69;72.75
5755;BME280;2902;42.130;24.732;2024-01-15T09:47:52;98917.81;;;3.82;73.79
5755;BME280;2902;42.130;24.732;2024-01-15T09:50:20;98920.56;;;4.04;72.71
5755;BME280;2902;42.130;24.732;2024-01-15T09:52:48;98934.59;;;4.27;71.55
5755;BME280;2902;42.130;24.732;2024-01-15T09:55:17;98924.03;;;4.43;69.83
5755;BME280;2902;42.130;24.732;2024-01-15T09:57:44;98896.38;;;4.55;70.95
5755;BME280;2902;42.130;24.732;2024-01-15T10:00:12;98900.88;;;4.69;68.91
5755;BME280;2902;42.130;24.732;2024-01-15T10:02:40;98909.31;;;4.57;68.91
5755;BME280;2902;42.130;24.732;2024-01-15T10:05:07;98900.84;;;4.47;70.17
5755;BME280;2902;42.130;24.732;2024-01-15T10:07:37;98894.94;;;4.45;69.58
5755;BME280;2902;42.130;24.732;2024-01-15T10:10:05;98891.53;;;4.36;70.20
5755;BME280;2902;42.130;24.732;2024-01-15T10:12:32;98882.38;;;4.24;70.15
5755;BME280;2902;42.130;24.732;2024-01-15T10:14:59;98872.56;;;4.18;70.90
5755;BME280;2902;42.130;24.732;2024-01-15T10:17:26;98878.66;;;4.11;71.85
5755;BME280;2902;42.130;24.732;2024-01-15T10:19:53;98865.69;;;4.09;72.66
5755;BME280;2902;42.130;24.732;2024-01-15T10:22:20;98866.47;;;4.18;72.34
5755;BME280;2902;42.130;24.732;2024-01-15T10:24:48;98853.50;;;4.16;73.07
5755;BME280;2902;42.130;24.732;2024-01-15T10:27:16;98844.88;;;4.30;72.84
5755;BME280;2902;42.130;24.732;2024-01-15T10:29:42;98837.91;;;4.45;72.78
5755;BME280;2902;42.130;24.732;2024-01-15T10:32:09;98836.81;;;4.32;72.50
5755;BME280;2902;42.130;24.732;2024-01-15T10:34:37;98817.63;;;4.31;72.40
5755;BME280;2902;42.130;24.732;2024-01-15T10:37:07;98797.41;;;4.32;73.23
5755;BME280;2902;42.130;24.732;2024-01-15T10:39:34;98796.63;;;4.54;72.74
5755;BME280;2902;42.130;24.732;2024-01-15T10:42:03;98786.94;;;4.91;71.55
5755;BME280;2902;42.130;24.732;2024-01-15T10:44:30;98782.38;;;5.22;68.92
5755;BME280;2902;42.130;24.732;2024-01-15T10:46:57;98778.50;;;5.47;68.01
5755;BME280;2902;42.130;24.732;2024-01-15T10:49:24;98784.94;;;5.74;67.25
5755;BME280;2902;42.130;24.732;2024-01-15T10:51:53;98780.75;;;6.09;66.70
5755;BME280;2902;42.130;24.732;2024-01-15T10:54:20;98784.50;;;6.35;65.14
5755;BME280;2902;42.130;24.732;2024-01-15T10:56:50;98788.72;;;6.51;64.43
5755;BME280;2902;42.130;24.732;2024-01-15T10:59:20;98783.38;;;6.44;65.33
5755;BME280;2902;42.130;24.732;2024-01-15T11:01:47;98792.19;;;6.72;65.22
5755;BME280;2902;42.130;24.732;2024-01-15T11:04:15;98796.91;;;6.98;63.01
5755;BME280;2902;42.130;24.732;2024-01-15T11:06:44;98797.47;;;7.21;61.06
5755;BME280;2902;42.130;24.732;2024-01-15T11:09:12;98783.47;;;7.48;60.79
5755;BME280;2902;42.130;24.732;2024-01-15T11:11:41;98778.81;;;7.84;58.60
5755;BME280;2902;42.130;24.732;2024-01-15T11:14:08;98749.63;;;8.18;55.24
5755;BME280;2902;42.130;24.732;2024-01-15T11:16:55;98743.03;;;8.61;55.08
5755;BME280;2902;42.130;24.732;2024-01-15T11:19:24;98724.94;;;8.84;51.95
5755;BME280;2902;42.130;24.732;2024-01-15T11:21:51;98725.97;;;8.83;50.18
5755;BME280;2902;42.130;24.732;2024-01-15T11:24:37;98706.38;;;9.10;50.38
5755;BME280;2902;42.130;24.732;2024-01-15T11:27:05;98715.94;;;9.37;49.75
5755;BME280;2902;42.130;24.732;2024-01-15T11:29:33;98711.00;;;9.47;48.72
5755;BME280;2902;42.130;24.732;2024-01-15T11:32:03;98706.53;;;9.41;48.30
5755;BME280;2902;42.130;24.732;2024-01-15T11:34:52;98702.88;;;9.35;47.80
5755;BME280;2902;42.130;24.732;2024-01-15T11:37:19;98708.16;;;9.42;47.88
5755;BME280;2902;42.130;24.732;2024-01-15T11:39:47;98694.84;;;9.61;48.14
5755;BME280;2902;42.130;24.732;2024-01-15T11:42:14;98693.38;;;9.78;46.69
5755;BME280;2902;42.130;24.732;2024-01-15T11:44:41;98697.78;;;9.91;46.85
5755;BME280;2902;42.130;24.732;2024-01-15T11:47:10;98686.16;;;9.92;45.42
5755;BME280;2902;42.130;24.732;2024-01-15T11:49:59;98687.97;;;9.98;45.26
5755;BME280;2902;42.130;24.732;2024-01-15T11:52:32;98684.38;;;9.86;44.67
5755;BME280;2902;42.130;24.732;2024-01-15T11:55:02;98684.81;;;9.76;45.05
5755;BME280;2902;42.130;24.732;2024-01-15T11:57:40;98677.31;;;9.60;45.86
5755;BME280;2902;42.130;24.732;2024-01-15T12:00:09;98664.09;;;9.54;46.19
5755;BME280;2902;42.130;24.732;2024-01-15T12:02:37;98664.03;;;9.67;45.48
5755;BME280;2902;42.130;24.732;2024-01-15T12:05:05;98658.38;;;9.57;45.93
5755;BME280;2902;42.130;24.732;2024-01-15T12:07:33;98652.91;;;9.52;45.74
5755;BME280;2902;42.130;24.732;2024-01-15T12:10:00;98675.31;;;9.56;45.99
5755;BME280;2902;42.130;24.732;2024-01-15T12:12:33;98678.59;;;9.51;45.80
5755;BME280;2902;42.130;24.732;2024-01-15T12:15:04;98667.84;;;9.33;45.82
5755;BME280;2902;42.130;24.732;2024-01-15T12:17:31;98670.50;;;9.14;45.98
5755;BME280;2902;42.130;24.732;2024-01-15T12:19:59;98670.56;;;8.88;46.07
5755;BME280;2902;42.130;24.732;2024-01-15T12:22:26;98661.41;;;8.64;47.33
5755;BME280;2902;42.130;24.732;2024-01-15T12:24:53;98664.25;;;8.63;48.31
5755;BME280;2902;42.130;24.732;2024-01-15T12:27:20;98651.03;;;8.63;47.88
5755;BME280;2902;42.130;24.732;2024-01-15T12:29:47;98636.56;;;8.59;47.88
5755;BME280;2902;42.130;24.732;2024-01-15T12:32:14;98641.44;;;8.42;48.89
5755;BME280;2902;42.130;24.732;2024-01-15T12:34:41;98638.78;;;8.36;50.01
5755;BME280;2902;42.130;24.732;2024-01-15T12:37:09;98643.28;;;8.29;49.04
5755;BME280;2902;42.130;24.732;2024-01-15T12:39:38;98640.56;;;8.16;50.41
5755;BME280;2902;42.130;24.732;2024-01-15T12:42:05;98641.44;;;8.23;50.91
5755;BME280;2902;42.130;24.732;2024-01-15T12:44:32;98640.22;;;8.32;49.64
5755;BME280;2902;42.130;24.732;2024-01-15T12:46:59;98639.41;;;8.38;49.79
5755;BME280;2902;42.130;24.732;2024-01-15T12:49:25;98645.75;;;8.43;49.09
5755;BME280;2902;42.130;24.732;2024-01-15T12:51:52;98638.81;;;8.49;49.72
5755;BME280;2902;42.130;24.732;2024-01-15T12:54:22;98631.69;;;8.49;49.67
5755;BME280;2902;42.130;24.732;2024-01-15T12:56:49;98635.75;;;8.52;49.71
5755;BME280;2902;42.130;24.732;2024-01-15T12:59:16;98635.34;;;8.55;50.12
5755;BME280;2902;42.130;24.732;2024-01-15T13:01:43;98630.06;;;8.55;50.73
5755;BME280;2902;42.130;24.732;2024-01-15T13:04:10;98616.22;;;8.53;51.55
5755;BME280;2902;42.130;24.732;2024-01-15T13:06:37;98616.00;;;8.54;52.70
5755;BME280;2902;42.130;24.732;2024-01-15T13:09:03;98611.34;;;8.37;53.73
5755;BME280;2902;42.130;24.732;2024-01-15T13:11:32;98601.16;;;8.21;55.20
5755;BME280;2902;42.130;24.732;2024-01-15T13:13:59;98599.09;;;8.23;55.98
5755;BME280;2902;42.130;24.732;2024-01-15T13:16:26;98596.47;;;8.23;56.00